Time;durP1;ratioP1;P1;durP2;ratioP2;P2;SDS_P1;SDS_P2;PMS_P1;PMS_P2;Temp;Humidity;BMP_temperature;BMP_pressure;BME280_temperature;BME280_humidity;BME280_pressure;Samples;Min_cycle;Max_cycle;Signal;HPM_P1;HPM_P2
2022/03/01 00:00:41;;;;;;;8.13;3.05;;;5.60;99.90;;;;;;20642283;28;20069;-46
2022/03/01 00:10:42;;;;;;;9.98;4.30;;;5.60;99.90;;;;;;20653493;28;20038;-45
2022/03/01 00:20:44;;;;;;;8.23;3.83;;;5.50;99.90;;;;;;20662205;28;20542;-46
2022/03/01 00:30:45;;;;;;;7.53;3.65;;;5.40;99.90;;;;;;20648954;28;20429;-45
2022/03/01 00:40:50;;;;;;;7.85;3.58;;;5.30;99.90;;;;;;20656338;28;20116;-46
2022/03/01 00:50:51;;;;;;;11.52;3.75;;;5.30;99.90;;;;;;20659137;28;20182;-45
2022/03/01 01:00:52;;;;;;;8.38;3.40;;;5.30;99.90;;;;;;20647707;28;20042;-45
2022/03/01 01:10:53;;;;;;;10.45;3.63;;;5.40;99.90;;;;;;20660596;28;20042;-45
2022/03/01 01:20:54;;;;;;;11.15;4.45;;;5.20;99.90;;;;;;20652163;28;20089;-45
2022/03/01 01:30:56;;;;;;;9.73;3.72;;;5.00;99.90;;;;;;20659132;28;20061;-46
2022/03/01 01:40:57;;;;;;;12.80;3.88;;;4.90;99.90;;;;;;20657267;28;20038;-45
2022/03/01 01:50:58;;;;;;;8.52;3.78;;;4.80;99.90;;;;;;20663195;28;20280;-46
2022/03/01 02:01:00;;;;;;;12.00;5.25;;;4.80;99.90;;;;;;20663650;28;20480;-46
2022/03/01 02:11:04;;;;;;;8.05;3.55;;;4.80;99.90;;;;;;20664893;28;20725;-45
2022/03/01 02:21:05;;;;;;;10.30;3.90;;;4.80;99.90;;;;;;20666597;28;20026;-46
2022/03/01 02:31:06;;;;;;;10.63;3.88;;;4.80;99.90;;;;;;20645860;28;20042;-46
2022/03/01 02:41:07;;;;;;;8.75;3.28;;;4.80;99.90;;;;;;20658944;28;20038;-45
2022/03/01 02:51:09;;;;;;;9.15;3.95;;;4.80;99.90;;;;;;20660567;28;20054;-45
2022/03/01 03:01:10;;;;;;;12.55;3.80;;;4.80;99.90;;;;;;20672266;28;20375;-46
2022/03/01 03:11:11;;;;;;;9.20;3.05;;;4.80;99.90;;;;;;20675710;28;20517;-45
2022/03/01 03:21:13;;;;;;;7.50;2.95;;;4.90;99.90;;;;;;20668718;28;20493;-46
2022/03/01 03:31:14;;;;;;;8.07;4.15;;;4.80;99.90;;;;;;20679476;28;20060;-46
2022/03/01 03:41:15;;;;;;;10.77;3.30;;;4.80;99.90;;;;;;20671862;28;20065;-45
2022/03/01 03:51:16;;;;;;;8.00;3.63;;;4.80;99.90;;;;;;20670088;28;20147;-45
2022/03/01 04:01:18;;;;;;;9.48;3.40;;;4.80;99.90;;;;;;20672580;28;20049;-45
2022/03/01 04:11:19;;;;;;;9.43;3.20;;;4.90;99.90;;;;;;20665854;28;20045;-45
2022/03/01 04:21:20;;;;;;;12.57;3.70;;;4.80;99.90;;;;;;20597354;28;20711;-45
2022/03/01 04:31:22;;;;;;;10.90;3.65;;;4.80;99.90;;;;;;20580821;28;20530;-46
2022/03/01 04:41:23;;;;;;;7.53;3.33;;;4.90;99.90;;;;;;20584604;28;20060;-46
2022/03/01 04:51:24;;;;;;;5.65;2.78;;;5.00;99.90;;;;;;20641320;28;20046;-46
2022/03/01 05:01:25;;;;;;;10.85;3.30;;;5.00;99.90;;;;;;20668865;28;20049;-45
2022/03/01 05:11:26;;;;;;;6.25;2.65;;;5.00;99.90;;;;;;20669635;28;20050;-46
2022/03/01 05:21:29;;;;;;;7.00;3.08;;;4.90;99.90;;;;;;20668812;28;20442;-45
2022/03/01 05:31:30;;;;;;;9.07;3.25;;;4.80;99.90;;;;;;20664854;28;20061;-45
2022/03/01 05:41:33;;;;;;;9.50;3.20;;;4.70;99.90;;;;;;20661928;28;20070;-46
2022/03/01 05:51:34;;;;;;;5.97;2.67;;;4.70;99.90;;;;;;20665116;28;20450;-45
2022/03/01 06:01:35;;;;;;;8.10;2.85;;;4.60;99.90;;;;;;20660696;28;20561;-45
2022/03/01 06:11:36;;;;;;;8.98;3.15;;;4.60;99.90;;;;;;20657946;28;20050;-45
2022/03/01 06:21:39;;;;;;;8.13;3.25;;;4.60;99.90;;;;;;20660027;28;20133;-46
2022/03/01 06:31:40;;;;;;;7.38;2.80;;;4.60;99.90;;;;;;20684967;28;20482;-45
2022/03/01 06:41:41;;;;;;;6.97;2.58;;;4.60;99.90;;;;;;20681321;28;20038;-45
2022/03/01 06:51:42;;;;;;;9.13;3.28;;;4.70;99.90;;;;;;20644313;28;20347;-46
2022/03/01 07:01:43;;;;;;;11.23;3.25;;;4.70;99.90;;;;;;20673346;28;20038;-46
2022/03/01 07:11:44;;;;;;;6.57;3.03;;;4.80;99.90;;;;;;20670390;28;20049;-45
2022/03/01 07:21:45;;;;;;;10.02;2.83;;;4.90;99.90;;;;;;20667377;28;20347;-45
2022/03/01 07:31:47;;;;;;;11.20;3.53;;;5.10;99.90;;;;;;20666286;28;20049;-46
2022/03/01 07:41:48;;;;;;;9.07;2.92;;;5.20;99.90;;;;;;20654823;28;20046;-46
2022/03/01 07:51:50;;;;;;;8.02;3.20;;;5.20;99.90;;;;;;20663397;28;20050;-45
2022/03/01 08:01:51;;;;;;;10.98;3.22;;;5.30;99.90;;;;;;20671544;28;20047;-45
2022/03/01 08:11:52;;;;;;;6.53;2.85;;;5.30;99.90;;;;;;20648338;28;20422;-46
2022/03/01 08:21:53;;;;;;;11.57;2.75;;;5.50;99.90;;;;;;20659069;28;20049;-45
2022/03/01 08:31:55;;;;;;;10.00;4.00;;;5.60;99.90;;;;;;20665872;28;20062;-45
2022/03/01 08:41:56;;;;;;;9.65;3.67;;;5.80;99.90;;;;;;20657024;28;20414;-45
2022/03/01 08:51:57;;;;;;;10.02;3.15;;;5.90;99.90;;;;;;20610983;28;20069;-45
2022/03/01 09:01:58;;;;;;;10.98;3.83;;;5.90;99.90;;;;;;20645426;28;20046;-46
2022/03/01 09:12:00;;;;;;;8.82;4.30;;;5.90;99.90;;;;;;20643352;28;20155;-46
2022/03/01 09:22:02;;;;;;;9.30;3.85;;;6.00;99.90;;;;;;20642902;28;20509;-45
2022/03/01 09:32:03;;;;;;;8.60;3.63;;;6.10;99.90;;;;;;20639524;28;20045;-46
2022/03/01 09:42:07;;;;;;;13.95;3.72;;;6.20;99.90;;;;;;20650972;28;20061;-45
2022/03/01 09:52:08;;;;;;;9.07;3.28;;;6.20;99.90;;;;;;20615529;28;20038;-46
2022/03/01 10:02:10;;;;;;;8.13;3.20;;;6.20;99.90;;;;;;20691477;28;20050;-45
2022/03/01 10:12:11;;;;;;;10.43;3.50;;;6.20;99.90;;;;;;20671665;28;20044;-46
2022/03/01 10:22:12;;;;;;;10.65;4.30;;;6.30;99.90;;;;;;20697947;28;20394;-45
2022/03/01 10:32:13;;;;;;;8.23;3.70;;;6.30;99.90;;;;;;20669452;28;20046;-46
2022/03/01 10:42:25;;;;;;;11.10;3.85;;;6.30;99.90;;;;;;20700062;28;20041;-46
2022/03/01 10:52:34;;;;;;;8.82;4.43;;;6.20;99.90;;;;;;20668879;28;20049;-46
2022/03/01 11:02:35;;;;;;;7.88;3.42;;;5.90;99.90;;;;;;20696419;28;20042;-46
2022/03/01 11:12:37;;;;;;;11.90;4.28;;;5.80;99.90;;;;;;20682063;28;20077;-46
2022/03/01 11:22:41;;;;;;;15.50;5.10;;;5.80;99.90;;;;;;20665584;28;20084;-46
2022/03/01 11:32:46;;;;;;;11.90;5.28;;;6.00;99.90;;;;;;20680938;28;20054;-46
2022/03/01 11:42:50;;;;;;;12.70;5.55;;;6.20;99.90;;;;;;20623549;28;20372;-46
2022/03/01 11:52:57;;;;;;;13.57;5.22;;;6.30;99.90;;;;;;20667044;28;20378;-46
2022/03/01 12:02:59;;;;;;;14.55;5.00;;;7.00;99.90;;;;;;20649113;28;20042;-46
2022/03/01 12:13:06;;;;;;;9.00;3.85;;;7.50;99.90;;;;;;20655667;28;20494;-46
2022/03/01 12:23:07;;;;;;;14.00;5.07;;;7.60;99.90;;;;;;20669865;28;20045;-46
2022/03/01 12:33:17;;;;;;;9.43;4.53;;;7.90;99.90;;;;;;20635514;28;20585;-46
2022/03/01 12:43:18;;;;;;;15.45;6.28;;;7.90;99.90;;;;;;20632020;28;20316;-46
2022/03/01 12:53:20;;;;;;;15.30;5.28;;;7.60;99.90;;;;;;20674317;28;20050;-46
2022/03/01 13:03:27;;;;;;;12.60;5.50;;;7.60;99.90;;;;;;20665507;28;20042;-46
2022/03/01 13:13:31;;;;;;;13.07;5.23;;;7.50;99.90;;;;;;20641215;28;20053;-46
2022/03/01 13:23:33;;;;;;;11.35;4.53;;;7.40;99.90;;;;;;20631024;28;20038;-46
2022/03/01 13:33:34;;;;;;;13.02;5.63;;;7.40;99.90;;;;;;20637567;28;20053;-46
2022/03/01 13:43:35;;;;;;;17.02;6.22;;;7.50;99.90;;;;;;20634524;28;20065;-46
2022/03/01 13:53:38;;;;;;;10.38;5.38;;;7.50;99.90;;;;;;20651798;28;20521;-46
2022/03/01 14:03:39;;;;;;;16.02;5.45;;;7.60;99.90;;;;;;20655055;28;20057;-46
2022/03/01 14:13:47;;;;;;;12.30;6.20;;;7.60;99.90;;;;;;20653995;28;20061;-46
2022/03/01 14:23:48;;;;;;;12.10;4.85;;;7.70;99.90;;;;;;20642067;28;20415;-46
2022/03/01 14:33:50;;;;;;;13.15;6.13;;;7.80;99.90;;;;;;20658068;28;20043;-46
2022/03/01 14:43:54;;;;;;;13.68;5.50;;;7.90;99.90;;;;;;20632941;28;20046;-46
2022/03/01 14:53:55;;;;;;;9.18;5.30;;;7.90;99.90;;;;;;20666918;28;20050;-46
2022/03/01 15:03:57;;;;;;;12.20;4.68;;;8.00;99.90;;;;;;20659552;28;20119;-46
2022/03/01 15:13:59;;;;;;;13.60;5.82;;;8.00;99.90;;;;;;20669556;28;20050;-45
2022/03/01 15:24:03;;;;;;;14.40;4.63;;;8.00;99.90;;;;;;20659140;28;20045;-46
2022/03/01 15:34:04;;;;;;;13.10;6.15;;;8.00;99.90;;;;;;20655076;28;20037;-46
2022/03/01 15:44:06;;;;;;;13.65;4.82;;;7.90;99.90;;;;;;20652961;28;20454;-46
2022/03/01 15:54:08;;;;;;;11.55;4.97;;;7.80;99.90;;;;;;20651161;28;20050;-46
2022/03/01 16:04:09;;;;;;;11.32;4.68;;;7.70;99.90;;;;;;20661978;28;20042;-46
2022/03/01 16:14:10;;;;;;;16.52;5.00;;;7.60;99.90;;;;;;20668818;28;20050;-46
2022/03/01 16:24:12;;;;;;;13.77;5.45;;;7.50;99.90;;;;;;20661766;28;20502;-46
2022/03/01 16:34:13;;;;;;;10.30;5.20;;;7.40;99.90;;;;;;20660706;28;20580;-46
2022/03/01 16:44:15;;;;;;;13.07;5.65;;;7.30;99.90;;;;;;20679938;28;20289;-46
2022/03/01 16:54:16;;;;;;;11.85;5.13;;;7.30;99.90;;;;;;20673646;28;21572;-46
2022/03/01 17:04:17;;;;;;;14.65;5.93;;;7.20;99.90;;;;;;20671908;28;20041;-46
2022/03/01 17:14:20;;;;;;;14.88;5.07;;;7.20;99.90;;;;;;20666399;28;20042;-46
2022/03/01 17:24:21;;;;;;;20.63;6.25;;;7.20;99.90;;;;;;20672958;28;20038;-46
2022/03/01 17:34:22;;;;;;;13.27;5.43;;;7.10;99.90;;;;;;20654612;28;20046;-46
2022/03/01 17:44:24;;;;;;;12.43;4.82;;;7.10;99.90;;;;;;20665365;28;20405;-46
2022/03/01 17:54:25;;;;;;;14.05;5.28;;;7.00;99.90;;;;;;20665898;28;20037;-46
2022/03/01 18:04:26;;;;;;;9.60;4.95;;;6.90;99.90;;;;;;20645695;28;20041;-46
2022/03/01 18:14:28;;;;;;;13.23;5.15;;;6.80;99.90;;;;;;20645666;28;20044;-46
2022/03/01 18:24:31;;;;;;;14.98;5.03;;;6.80;99.90;;;;;;20652415;28;20298;-46
2022/03/01 18:34:32;;;;;;;16.15;6.57;;;6.80;99.90;;;;;;20649108;28;20510;-46
2022/03/01 18:44:33;;;;;;;14.00;5.18;;;6.80;99.90;;;;;;20658753;28;20083;-46
2022/03/01 18:54:35;;;;;;;13.52;8.00;;;6.80;99.90;;;;;;20651433;28;20042;-46
2022/03/01 19:04:36;;;;;;;16.25;6.97;;;6.80;99.90;;;;;;20650502;28;20057;-46
2022/03/01 19:14:38;;;;;;;15.05;5.97;;;6.80;99.90;;;;;;20648155;28;20050;-46
2022/03/01 19:24:39;;;;;;;14.20;5.82;;;6.80;99.90;;;;;;20648824;28;21189;-45
2022/03/01 19:34:40;;;;;;;14.15;7.13;;;6.80;99.90;;;;;;20646779;28;20058;-46
2022/03/01 19:44:43;;;;;;;13.70;6.63;;;6.80;99.90;;;;;;20648126;28;20038;-46
2022/03/01 19:54:46;;;;;;;13.27;6.07;;;6.80;99.90;;;;;;20651349;28;20049;-46
2022/03/01 20:04:47;;;;;;;14.65;5.93;;;6.80;99.90;;;;;;20651173;28;20046;-46
2022/03/01 20:14:48;;;;;;;11.23;6.05;;;6.80;99.90;;;;;;20656370;28;20555;-46
2022/03/01 20:24:49;;;;;;;20.15;6.20;;;6.80;99.90;;;;;;20639651;28;20042;-45
2022/03/01 20:34:50;;;;;;;17.20;6.45;;;6.80;99.90;;;;;;20635772;28;20442;-46
2022/03/01 20:44:51;;;;;;;18.77;6.72;;;6.70;99.90;;;;;;20657282;28;20521;-46
2022/03/01 20:54:52;;;;;;;16.08;6.05;;;6.70;99.90;;;;;;20672034;28;20461;-45
2022/03/01 21:04:54;;;;;;;13.73;5.40;;;6.70;99.90;;;;;;20662787;28;20033;-46
2022/03/01 21:14:55;;;;;;;17.77;5.68;;;6.70;99.90;;;;;;20687086;28;20058;-46
2022/03/01 21:24:57;;;;;;;21.23;6.82;;;6.70;99.90;;;;;;20638106;28;20037;-46
2022/03/01 21:34:59;;;;;;;15.60;6.65;;;6.70;99.90;;;;;;20680684;28;20086;-46
2022/03/01 21:45:00;;;;;;;15.23;5.55;;;6.70;99.90;;;;;;20676097;28;20049;-46
2022/03/01 21:55:01;;;;;;;19.83;6.47;;;6.70;99.90;;;;;;20670254;28;20057;-46
2022/03/01 22:05:04;;;;;;;15.15;5.22;;;6.80;99.90;;;;;;20662191;28;20122;-46
2022/03/01 22:15:06;;;;;;;14.38;6.38;;;6.70;99.90;;;;;;20665723;28;20056;-46
2022/03/01 22:25:09;;;;;;;16.50;7.50;;;6.70;99.90;;;;;;20667797;28;20050;-46
2022/03/01 22:35:11;;;;;;;14.57;6.88;;;6.60;99.90;;;;;;20666397;28;20445;-46
2022/03/01 22:45:14;;;;;;;19.35;6.53;;;6.50;99.90;;;;;;20662830;28;20050;-46
2022/03/01 22:55:18;;;;;;;17.73;6.32;;;6.40;99.90;;;;;;20663776;28;21403;-46
2022/03/01 23:05:19;;;;;;;18.92;7.47;;;6.30;99.90;;;;;;20658055;28;20031;-46
2022/03/01 23:15:21;;;;;;;13.82;5.95;;;6.30;99.90;;;;;;20669124;28;20411;-46
2022/03/01 23:25:22;;;;;;;11.75;5.53;;;6.30;99.90;;;;;;20675008;28;20046;-46
2022/03/01 23:35:24;;;;;;;14.88;6.72;;;6.30;99.90;;;;;;20657066;28;20054;-46
2022/03/01 23:45:25;;;;;;;14.52;7.13;;;6.20;99.90;;;;;;20671484;28;20042;-46
2022/03/01 23:55:26;;;;;;;17.83;7.03;;;6.20;99.90;;;;;;20662986;28;20044;-46
